Time;durP1;ratioP1;P1;durP2;ratioP2;P2;SDS_P1;SDS_P2;PMS_P1;PMS_P2;Temp;Humidity;BMP_temperature;BMP_pressure;BME280_temperature;BME280_humidity;BME280_pressure;Samples;Min_cycle;Max_cycle;Signal;HPM_P1;HPM_P2
2024/01/24 00:00:33;;;;;;;7.83;4.87;;;4.20;99.90;;;3.91;65.17;96023.38;5068031;28;20470;-64
2024/01/24 00:03:01;;;;;;;8.03;5.23;;;4.20;99.90;;;3.91;64.77;96023.38;5068920;28;20451;-60
2024/01/24 00:05:28;;;;;;;5.83;5.00;;;4.20;99.90;;;3.92;64.65;96027.69;5068222;28;20844;-61
2024/01/24 00:07:56;;;;;;;7.00;5.03;;;4.20;99.90;;;3.92;64.70;96029.44;5068026;28;20454;-61
2024/01/24 00:10:24;;;;;;;6.90;5.53;;;4.20;99.90;;;3.94;64.93;96033.66;5068458;28;20909;-60
2024/01/24 00:12:51;;;;;;;6.63;5.23;;;4.20;99.90;;;3.92;64.68;96035.47;5068599;28;20446;-61
2024/01/24 00:15:19;;;;;;;7.60;5.10;;;4.20;99.90;;;3.92;64.18;96045.91;5068628;28;20475;-63
2024/01/24 00:17:46;;;;;;;7.87;5.77;;;4.20;99.90;;;3.92;64.61;96051.09;5069381;28;20487;-63
2024/01/24 00:20:13;;;;;;;9.60;5.17;;;4.20;99.90;;;3.92;64.40;96053.69;5069175;28;20450;-63
2024/01/24 00:22:41;;;;;;;6.77;6.07;;;4.20;99.90;;;3.90;64.20;96052.94;5069166;28;20473;-63
2024/01/24 00:25:10;;;;;;;7.07;5.43;;;4.20;99.90;;;3.90;64.31;96050.34;5068995;28;20537;-60
2024/01/24 00:27:37;;;;;;;8.27;5.47;;;4.10;99.90;;;3.87;63.97;96050.47;5068835;28;20444;-60
2024/01/24 00:30:06;;;;;;;8.33;5.93;;;4.10;99.90;;;3.86;64.72;96055.75;5070914;28;20810;-60
2024/01/24 00:32:33;;;;;;;10.27;5.20;;;4.10;99.90;;;3.82;64.38;96054.19;5072971;28;20463;-63
2024/01/24 00:35:00;;;;;;;10.17;6.57;;;4.10;99.90;;;3.80;64.15;96056.03;5073166;28;20451;-64
2024/01/24 00:37:28;;;;;;;7.23;5.80;;;4.00;99.90;;;3.76;64.92;96060.50;5073416;28;20491;-61
2024/01/24 00:39:55;;;;;;;15.93;7.90;;;4.00;99.90;;;3.74;64.41;96052.75;5073074;28;20504;-61
2024/01/24 00:42:24;;;;;;;10.67;5.93;;;4.00;99.90;;;3.73;64.29;96063.25;5073027;28;20451;-61
2024/01/24 00:44:51;;;;;;;11.37;5.70;;;4.00;99.90;;;3.73;64.65;96065.84;5072886;28;20454;-61
2024/01/24 00:47:19;;;;;;;11.10;5.93;;;4.00;99.90;;;3.70;63.99;96063.38;5072625;28;20505;-63
2024/01/24 00:49:47;;;;;;;9.90;6.83;;;3.90;99.90;;;3.67;64.17;96066.97;5072686;28;20538;-63
2024/01/24 00:52:14;;;;;;;9.93;6.13;;;3.90;99.90;;;3.66;64.35;96064.44;5072818;28;20478;-63
2024/01/24 00:54:42;;;;;;;8.37;6.20;;;3.90;99.90;;;3.66;64.41;96061.84;5072909;28;20458;-61
2024/01/24 00:57:09;;;;;;;13.90;7.00;;;3.90;99.90;;;3.65;64.55;96063.59;5073342;28;20879;-61
2024/01/24 00:59:38;;;;;;;10.00;6.93;;;3.90;99.90;;;3.64;64.61;96066.25;5076154;28;20545;-63
2024/01/24 01:02:05;;;;;;;10.33;7.10;;;3.90;99.90;;;3.62;64.51;96058.50;5072570;28;20462;-60
2024/01/24 01:04:32;;;;;;;10.13;6.70;;;3.90;99.90;;;3.62;64.31;96060.28;5072562;28;20453;-60
2024/01/24 01:07:00;;;;;;;10.50;6.60;;;3.80;99.90;;;3.58;64.22;96051.78;5072674;28;20494;-63
2024/01/24 01:09:27;;;;;;;11.63;7.10;;;3.80;99.90;;;3.56;64.69;96054.44;5072887;28;20803;-59
2024/01/24 01:11:55;;;;;;;12.17;7.47;;;3.80;99.90;;;3.53;64.55;96054.59;5062722;28;20467;-59
2024/01/24 01:14:22;;;;;;;15.60;7.80;;;3.80;99.90;;;3.50;65.25;96044.31;5069050;28;20457;-63
2024/01/24 01:16:50;;;;;;;13.57;6.70;;;3.80;99.90;;;3.46;64.74;96058.34;5068618;28;20617;-60
2024/01/24 01:19:18;;;;;;;10.97;7.70;;;3.70;99.90;;;3.41;64.70;96055.94;5072491;28;20462;-64
2024/01/24 01:21:45;;;;;;;13.93;8.10;;;3.70;99.90;;;3.39;64.85;96051.72;5072023;28;20987;-62
2024/01/24 01:24:12;;;;;;;9.70;7.60;;;3.70;99.90;;;3.38;65.34;96050.06;5071968;28;20478;-63
2024/01/24 01:26:40;;;;;;;13.97;7.03;;;3.60;99.90;;;3.33;65.34;96046.78;5072010;28;20478;-59
2024/01/24 01:29:08;;;;;;;12.40;6.90;;;3.60;99.90;;;3.35;65.53;96057.97;5071949;28;20462;-63
2024/01/24 01:31:35;;;;;;;9.17;6.93;;;3.60;99.90;;;3.34;65.50;96061.47;5072092;28;20470;-61
2024/01/24 01:34:04;;;;;;;9.17;7.27;;;3.60;99.90;;;3.33;65.45;96058.06;5071708;28;20808;-64
2024/01/24 01:36:31;;;;;;;10.90;6.13;;;3.60;99.90;;;3.33;65.19;96057.19;5072068;28;20474;-64
2024/01/24 01:38:58;;;;;;;11.73;7.40;;;3.60;99.90;;;3.33;64.67;96052.00;5072206;28;20451;-63
2024/01/24 01:41:25;;;;;;;11.97;7.50;;;3.60;99.90;;;3.31;64.97;96052.06;5070540;28;20477;-64
2024/01/24 01:43:53;;;;;;;9.90;6.47;;;3.50;99.90;;;3.31;65.09;96053.81;5071695;28;20459;-59
2024/01/24 01:46:21;;;;;;;18.17;7.73;;;3.60;99.90;;;3.32;65.21;96052.91;5072008;28;20544;-63
2024/01/24 01:48:49;;;;;;;11.73;6.73;;;3.60;99.90;;;3.32;65.15;96055.53;5071563;28;20986;-61
2024/01/24 01:51:18;;;;;;;10.40;7.80;;;3.50;99.90;;;3.31;65.29;96052.06;5071072;28;20475;-60
2024/01/24 01:53:45;;;;;;;10.87;6.77;;;3.50;99.90;;;3.29;65.01;96034.84;5071801;28;20447;-64
2024/01/24 01:56:13;;;;;;;9.87;7.23;;;3.50;99.90;;;3.32;65.50;96032.13;5071607;28;20481;-63
2024/01/24 01:58:40;;;;;;;8.67;6.23;;;3.60;99.90;;;3.31;64.82;96028.66;5071271;28;21044;-61
2024/01/24 02:01:08;;;;;;;7.80;6.27;;;3.60;99.90;;;3.32;65.12;96037.31;5071599;28;20471;-63
2024/01/24 02:03:35;;;;;;;12.50;7.10;;;3.60;99.90;;;3.33;64.90;96031.19;5071671;28;20520;-61
2024/01/24 02:06:02;;;;;;;17.20;7.53;;;3.60;99.90;;;3.34;64.71;96023.31;5071524;28;20474;-63
2024/01/24 02:08:32;;;;;;;9.10;6.10;;;3.60;99.90;;;3.36;64.94;96029.31;5071502;28;20481;-60
2024/01/24 02:11:00;;;;;;;11.13;7.50;;;3.60;99.90;;;3.37;64.58;96033.59;5067561;28;20983;-60
2024/01/24 02:13:30;;;;;;;9.77;6.13;;;3.60;99.90;;;3.41;64.47;96031.72;5071144;28;20451;-64
2024/01/24 02:15:57;;;;;;;9.13;5.63;;;3.60;99.90;;;3.40;64.23;96030.00;5070785;28;20528;-59
2024/01/24 02:18:24;;;;;;;8.67;5.90;;;3.60;99.90;;;3.39;64.25;96020.50;5070946;28;20490;-63
2024/01/24 02:20:52;;;;;;;12.60;5.40;;;3.60;99.90;;;3.38;64.37;96019.69;5071040;28;20475;-64
2024/01/24 02:23:19;;;;;;;10.37;5.67;;;3.60;99.90;;;3.38;64.44;96019.69;5070945;28;20467;-61
2024/01/24 02:25:50;;;;;;;7.37;5.47;;;3.60;99.90;;;3.38;nan;96013.66;5071122;28;20549;-64
2024/01/24 02:28:17;;;;;;;11.43;5.93;;;3.60;99.90;;;3.37;64.43;96011.94;5071565;28;20447;-59
2024/01/24 02:30:44;;;;;;;10.73;5.90;;;3.60;99.90;;;3.37;63.76;96011.94;5070765;28;20483;-61
2024/01/24 02:33:12;;;;;;;7.07;5.03;;;3.60;99.90;;;3.37;63.97;96015.38;5071060;28;20835;-61
2024/01/24 02:35:39;;;;;;;8.37;5.70;;;3.60;99.90;;;3.37;64.13;96009.34;5072058;28;20544;-63
2024/01/24 02:38:06;;;;;;;8.93;6.10;;;3.60;99.90;;;3.37;64.35;96015.38;5073342;28;20513;-64
2024/01/24 02:40:34;;;;;;;9.90;6.00;;;3.60;99.90;;;3.38;63.91;96013.66;5067552;28;21061;-63
2024/01/24 02:43:03;;;;;;;9.63;6.30;;;3.60;99.90;;;3.37;64.23;96017.16;5066857;28;21153;-61
2024/01/24 02:45:30;;;;;;;9.73;6.87;;;3.60;99.90;;;3.37;63.73;96017.16;5067244;28;20978;-63
2024/01/24 02:47:57;;;;;;;15.07;6.13;;;3.60;99.90;;;3.35;64.49;96008.59;5070692;28;20815;-64
2024/01/24 02:50:25;;;;;;;9.20;6.77;;;3.60;99.90;;;3.36;64.22;96020.66;5070625;28;20478;-65
2024/01/24 02:52:53;;;;;;;13.70;7.40;;;3.60;99.90;;;3.36;64.04;96010.25;5070670;28;20552;-61
2024/01/24 02:55:20;;;;;;;11.60;7.13;;;3.60;99.90;;;3.35;64.37;96006.81;5070552;28;20503;-64
2024/01/24 02:57:47;;;;;;;11.47;6.80;;;3.60;99.90;;;3.34;64.81;96014.69;5070370;28;20491;-61
2024/01/24 03:00:18;;;;;;;12.37;7.17;;;3.60;99.90;;;3.33;64.06;96012.97;5070528;28;20552;-61
2024/01/24 03:02:45;;;;;;;11.20;7.17;;;3.60;99.90;;;3.32;64.63;96014.75;5070894;28;20458;-61
2024/01/24 03:05:13;;;;;;;13.57;7.73;;;3.60;99.90;;;3.32;64.21;96013.91;5070798;28;20790;-63
2024/01/24 03:07:41;;;;;;;13.27;8.13;;;3.60;99.90;;;3.30;64.19;96005.31;5070541;28;20469;-63
2024/01/24 03:10:09;;;;;;;15.00;6.83;;;3.50;99.90;;;3.28;64.12;96010.59;5070093;28;20474;-60
2024/01/24 03:12:37;;;;;;;17.00;7.97;;;3.50;99.90;;;3.28;64.59;96004.56;5070438;28;20447;-60
2024/01/24 03:15:06;;;;;;;12.70;8.30;;;3.50;99.90;;;3.29;64.53;96006.25;5069911;28;20500;-62
2024/01/24 03:17:34;;;;;;;12.53;6.80;;;3.50;99.90;;;3.28;64.48;96007.97;5070166;28;20583;-61
2024/01/24 03:20:02;;;;;;;12.70;7.47;;;3.50;99.90;;;3.29;64.50;96006.25;5072043;28;20506;-61
2024/01/24 03:22:29;;;;;;;15.20;7.77;;;3.50;99.90;;;3.28;64.40;95991.56;5070059;28;20536;-63
2024/01/24 03:24:57;;;;;;;10.40;6.70;;;3.50;99.90;;;3.29;63.98;95993.25;5069883;28;20450;-63
2024/01/24 03:27:24;;;;;;;12.80;7.27;;;3.50;99.90;;;3.26;64.24;95996.81;5069885;28;20512;-64
2024/01/24 03:29:51;;;;;;;12.40;8.03;;;3.50;99.90;;;3.25;64.69;95989.91;5070199;28;20530;-59
2024/01/24 03:32:19;;;;;;;9.20;7.13;;;3.50;99.90;;;3.25;64.56;96000.31;5069926;28;20474;-64
2024/01/24 03:34:54;;;;;;;13.17;7.63;;;3.50;99.90;;;3.25;65.00;96007.28;5069805;28;20501;-61
2024/01/24 03:37:22;;;;;;;10.60;6.93;;;3.50;99.90;;;3.23;64.31;96004.75;5069927;28;20454;-61
2024/01/24 03:39:49;;;;;;;10.67;6.40;;;3.50;99.90;;;3.23;63.97;96005.59;5069501;28;21032;-60
2024/01/24 03:42:16;;;;;;;12.40;7.60;;;3.50;99.90;;;3.22;64.65;96014.31;5069402;28;20471;-63
2024/01/24 03:44:44;;;;;;;12.33;7.53;;;3.50;99.90;;;3.22;64.49;96019.50;5069705;28;20573;-62
2024/01/24 03:47:11;;;;;;;13.30;8.37;;;3.50;99.90;;;3.23;64.14;96017.75;5069614;28;20559;-59
2024/01/24 03:49:38;;;;;;;10.87;7.37;;;3.50;99.90;;;3.22;64.56;96009.13;5069656;28;20459;-62
2024/01/24 03:52:07;;;;;;;13.43;6.80;;;3.50;99.90;;;3.21;64.55;96002.22;5069609;28;21019;-60
2024/01/24 03:54:35;;;;;;;12.73;7.73;;;3.50;99.90;;;3.19;64.16;96000.59;5069402;28;20454;-64
2024/01/24 03:57:02;;;;;;;11.67;8.27;;;3.40;99.90;;;3.20;64.56;95994.50;5069702;28;20478;-64
2024/01/24 03:59:29;;;;;;;12.17;7.93;;;3.40;99.90;;;3.18;64.62;95991.13;5070319;28;20490;-63
2024/01/24 04:01:57;;;;;;;13.87;8.23;;;3.40;99.90;;;3.17;64.42;95998.06;5070884;28;20998;-63
2024/01/24 04:04:24;;;;;;;14.70;8.70;;;3.40;99.90;;;3.16;64.34;96004.19;5062579;28;20451;-61
2024/01/24 04:06:51;;;;;;;13.33;7.90;;;3.40;99.90;;;3.14;64.05;96008.59;5068997;28;20471;-64
2024/01/24 04:09:21;;;;;;;19.20;9.17;;;3.40;99.90;;;3.15;63.98;96018.09;5066434;28;20479;-64
2024/01/24 04:11:48;;;;;;;14.33;8.70;;;3.40;99.90;;;3.13;64.59;96017.31;5059587;28;20563;-63
2024/01/24 04:14:15;;;;;;;10.20;7.43;;;3.40;99.90;;;3.13;64.95;96035.50;5069302;28;20474;-62
2024/01/24 04:16:43;;;;;;;15.20;7.80;;;3.40;99.90;;;3.12;64.45;96031.22;5069159;28;20541;-64
2024/01/24 04:19:09;;;;;;;12.53;8.67;;;3.40;99.90;;;3.12;64.54;96023.41;5069326;28;20509;-60
2024/01/24 04:21:42;;;;;;;10.83;7.67;;;3.40;99.90;;;3.13;64.87;96034.66;5069340;28;20463;-62
2024/01/24 04:24:10;;;;;;;14.57;8.57;;;3.40;99.90;;;3.10;64.50;96035.63;5069644;28;20530;-63
2024/01/24 04:26:39;;;;;;;13.70;7.00;;;3.30;99.90;;;3.07;64.53;96035.78;5068393;28;20467;-60
2024/01/24 04:29:06;;;;;;;11.07;8.17;;;3.30;99.90;;;3.06;64.13;96036.66;5069490;28;20439;-60
2024/01/24 04:31:33;;;;;;;14.13;8.73;;;3.30;99.90;;;3.05;64.14;96037.56;5069628;28;20536;-61
2024/01/24 04:34:02;;;;;;;15.87;9.50;;;3.30;99.90;;;2.99;65.04;96032.63;5069228;28;20459;-61
2024/01/24 04:36:30;;;;;;;11.33;7.80;;;3.30;99.90;;;3.03;64.58;96044.59;5070153;28;20474;-63
2024/01/24 04:38:57;;;;;;;23.40;12.60;;;3.30;99.90;;;3.03;64.93;96044.59;5069770;28;20499;-61
2024/01/24 04:41:24;;;;;;;14.57;8.07;;;3.30;99.90;;;3.00;65.29;96039.53;5069346;28;20528;-60
2024/01/24 04:43:53;;;;;;;16.57;9.20;;;3.30;99.90;;;2.98;65.10;96034.41;5069254;28;20461;-61
2024/01/24 04:46:20;;;;;;;14.80;8.57;;;3.20;99.90;;;2.97;64.95;96035.28;5068971;28;20467;-62
2024/01/24 04:48:48;;;;;;;16.00;8.37;;;3.30;99.90;;;3.00;64.48;96050.75;5069566;28;20542;-63
2024/01/24 04:51:15;;;;;;;12.37;8.40;;;3.20;99.90;;;3.00;64.23;96055.13;5069104;28;20478;-63
2024/01/24 04:53:43;;;;;;;12.97;8.30;;;3.30;99.90;;;3.00;64.22;96042.13;5069492;28;20904;-62
2024/01/24 04:56:10;;;;;;;14.73;8.27;;;3.30;99.90;;;3.01;65.03;96047.25;5069396;28;20478;-63
2024/01/24 04:58:38;;;;;;;14.83;7.90;;;3.30;99.90;;;3.03;64.79;96060.19;5069278;28;20490;-60
2024/01/24 05:01:07;;;;;;;11.13;8.67;;;3.30;99.90;;;3.03;65.38;96062.78;5067944;28;20477;-63
2024/01/24 05:03:34;;;;;;;12.53;9.00;;;3.30;99.90;;;3.05;65.65;96066.16;5068599;28;20550;-64
2024/01/24 05:06:02;;;;;;;19.77;9.53;;;3.30;99.90;;;3.05;64.49;96061.81;5070912;28;20471;-64
2024/01/24 05:08:30;;;;;;;13.23;8.93;;;3.30;99.90;;;3.06;64.96;96075.66;5068868;28;20982;-65
2024/01/24 05:10:57;;;;;;;14.37;8.93;;;3.30;99.90;;;3.06;64.70;96083.44;5068877;28;20567;-63
2024/01/24 05:13:24;;;;;;;21.43;8.83;;;3.30;99.90;;;3.05;64.61;96079.16;5068908;28;20454;-61
2024/01/24 05:15:52;;;;;;;12.03;7.37;;;3.30;99.90;;;3.02;64.87;96080.16;5070378;28;20474;-63
2024/01/24 05:18:20;;;;;;;11.70;7.93;;;3.30;99.90;;;3.02;64.05;96089.69;5072634;28;20486;-63
2024/01/24 05:20:48;;;;;;;13.50;7.23;;;3.20;99.90;;;3.00;64.88;96097.53;5072427;28;20470;-63
2024/01/24 05:23:15;;;;;;;15.50;7.60;;;3.20;99.90;;;2.98;64.68;96091.56;5072388;28;20951;-58
2024/01/24 05:25:43;;;;;;;10.03;7.33;;;3.20;99.90;;;2.96;64.20;96092.53;5072298;28;20568;-60
2024/01/24 05:28:11;;;;;;;12.17;7.57;;;3.20;99.90;;;2.95;65.08;96089.09;5072534;28;20455;-59
2024/01/24 05:30:38;;;;;;;14.23;8.30;;;3.20;99.90;;;2.95;64.19;96088.25;5072085;28;20619;-59
2024/01/24 05:33:06;;;;;;;10.47;7.67;;;3.20;99.90;;;2.93;64.89;96088.31;5071401;28;20451;-60
2024/01/24 05:35:35;;;;;;;14.80;8.20;;;3.20;99.90;;;2.94;64.55;96081.38;5072145;28;20471;-60
2024/01/24 05:38:02;;;;;;;10.00;7.33;;;3.20;99.90;;;2.94;64.88;96077.00;5072116;28;20442;-60
2024/01/24 05:40:29;;;;;;;13.63;8.30;;;3.20;99.90;;;2.93;64.88;96077.94;5071961;28;20463;-59
2024/01/24 05:42:57;;;;;;;17.37;8.60;;;3.20;99.90;;;2.94;64.68;96084.78;5071980;28;20459;-60
2024/01/24 05:45:25;;;;;;;18.63;8.47;;;3.20;99.90;;;2.93;64.26;96079.66;5070105;28;20471;-61
2024/01/24 05:47:52;;;;;;;10.70;7.30;;;3.20;99.90;;;2.91;64.67;96091.88;5072348;28;20450;-59
2024/01/24 05:50:20;;;;;;;13.47;8.60;;;3.20;99.90;;;2.89;64.17;96089.34;5071756;28;20482;-60
2024/01/24 05:52:49;;;;;;;12.67;7.83;;;3.10;99.90;;;2.87;64.70;96086.81;5072225;28;20455;-60
2024/01/24 05:55:16;;;;;;;12.97;8.33;;;3.10;99.90;;;2.85;64.39;96093.84;5071963;28;20510;-60
2024/01/24 05:57:46;;;;;;;10.90;7.20;;;3.10;99.90;;;2.83;64.88;96090.44;5071766;28;20459;-60
2024/01/24 06:00:14;;;;;;;10.60;7.87;;;3.10;99.90;;;2.82;64.10;96080.97;5071467;28;21034;-60
2024/01/24 06:02:43;;;;;;;16.47;8.40;;;3.10;99.90;;;2.81;64.92;96079.28;5070264;28;20542;-59
2024/01/24 06:05:10;;;;;;;11.03;6.77;;;3.10;99.90;;;2.82;65.06;96082.69;5071116;28;20852;-59
2024/01/24 06:07:38;;;;;;;12.87;8.50;;;3.10;99.90;;;2.81;65.06;96081.88;5071409;28;20459;-60
2024/01/24 06:10:08;;;;;;;11.70;7.17;;;3.10;99.90;;;2.84;65.34;96081.75;5071762;28;20529;-60
2024/01/24 06:12:35;;;;;;;12.70;7.30;;;3.10;99.90;;;2.86;64.24;96089.47;5071751;28;20530;-60
2024/01/24 06:15:03;;;;;;;13.33;7.63;;;3.10;99.90;;;2.88;64.25;96085.03;5071871;28;20482;-61
2024/01/24 06:17:31;;;;;;;10.83;8.27;;;3.10;99.90;;;2.92;64.06;96086.63;5071790;28;20809;-60
2024/01/24 06:19:59;;;;;;;11.37;7.40;;;3.20;99.90;;;2.94;64.15;96090.00;5071846;28;20821;-60
2024/01/24 06:22:27;;;;;;;12.90;8.23;;;3.20;99.90;;;2.96;64.42;96084.72;5071781;28;20458;-60
2024/01/24 06:24:55;;;;;;;23.63;9.57;;;3.20;99.90;;;2.99;64.61;96085.47;5071635;28;20998;-61
2024/01/24 06:27:24;;;;;;;13.23;8.30;;;3.20;99.90;;;3.02;64.29;96082.75;5070769;28;21012;-60
2024/01/24 06:29:52;;;;;;;11.23;8.30;;;3.30;99.90;;;3.05;64.13;96080.03;5071983;28;20517;-60
2024/01/24 06:32:19;;;;;;;17.67;8.80;;;3.30;99.90;;;3.11;64.46;96078.91;5070656;28;20599;-60
2024/01/24 06:34:46;;;;;;;16.87;8.53;;;3.30;99.90;;;3.30;64.71;96079.00;5071844;28;20446;-61
2024/01/24 06:37:14;;;;;;;14.90;8.60;;;3.50;99.90;;;3.82;63.90;96080.22;5071922;28;20467;-60
2024/01/24 06:39:41;;;;;;;16.77;8.23;;;3.90;99.90;;;4.50;63.12;96064.91;5071245;28;20491;-60
2024/01/24 06:42:10;;;;;;;14.63;7.90;;;4.40;99.90;;;5.24;61.94;96074.34;5071823;28;20544;-59
2024/01/24 06:44:39;;;;;;;18.70;8.93;;;5.10;99.90;;;5.94;60.14;96063.78;5071562;28;20461;-60
2024/01/24 06:47:07;;;;;;;16.30;8.63;;;5.70;99.60;;;6.67;59.29;96067.69;5071791;28;20493;-59
2024/01/24 06:49:34;;;;;;;13.50;8.47;;;6.40;98.70;;;7.43;58.39;96057.16;5071422;28;20477;-60
2024/01/24 06:52:02;;;;;;;9.67;6.87;;;7.20;98.20;;;8.18;56.59;96059.63;5071126;28;20482;-63
2024/01/24 06:54:30;;;;;;;13.67;7.87;;;8.00;97.00;;;8.84;53.97;96057.22;5071263;28;20457;-62
2024/01/24 06:56:58;;;;;;;13.23;7.87;;;8.70;94.40;;;9.54;54.40;96061.34;5071170;28;20470;-60
2024/01/24 06:59:25;;;;;;;15.70;8.80;;;9.40;94.50;;;10.22;53.40;96054.06;5071627;28;20487;-60
2024/01/24 07:01:54;;;;;;;11.77;7.33;;;10.10;92.80;;;10.87;51.65;96050.31;5071037;28;20466;-60
2024/01/24 07:04:22;;;;;;;14.83;6.90;;;10.80;90.80;;;11.45;51.55;96053.03;5070286;28;20891;-60
2024/01/24 07:06:49;;;;;;;13.53;6.90;;;11.40;90.50;;;12.01;49.84;96043.56;5071235;28;20463;-60
2024/01/24 07:09:17;;;;;;;12.27;6.73;;;12.00;87.10;;;12.54;49.61;96046.38;5070923;28;20454;-60
2024/01/24 07:11:44;;;;;;;10.40;7.60;;;12.60;87.00;;;13.11;48.80;96045.41;5070867;28;20477;-60
2024/01/24 07:14:14;;;;;;;11.97;7.30;;;13.20;84.50;;;13.70;47.93;96044.03;5070904;28;20455;-61
2024/01/24 07:16:43;;;;;;;10.53;6.70;;;13.80;83.10;;;14.24;46.33;96042.09;5070756;28;20506;-61
2024/01/24 07:19:11;;;;;;;9.30;7.10;;;14.40;78.40;;;14.82;46.48;96052.84;5070576;28;20498;-62
2024/01/24 07:21:39;;;;;;;13.13;8.33;;;15.10;79.10;;;15.38;44.53;96058.47;5070461;28;21015;-60
2024/01/24 07:24:07;;;;;;;11.40;7.40;;;15.60;74.80;;;15.82;43.87;96061.53;5070840;28;20451;-59
2024/01/24 07:26:34;;;;;;;9.70;7.53;;;16.10;72.50;;;16.21;42.90;96060.59;5070465;28;20471;-61
2024/01/24 07:29:01;;;;;;;24.13;10.57;;;16.50;70.60;;;16.54;42.45;96067.13;5070495;28;20524;-61
2024/01/24 07:31:29;;;;;;;13.30;8.60;;;16.90;68.70;;;16.85;41.50;96065.03;5070522;28;20478;-61
2024/01/24 07:33:56;;;;;;;11.50;6.70;;;17.30;65.80;;;17.24;39.04;96063.09;5069369;28;20886;-60
2024/01/24 07:36:25;;;;;;;14.50;6.60;;;17.50;61.80;;;17.47;39.51;96072.28;5070435;28;20482;-60
2024/01/24 07:38:53;;;;;;;11.50;7.30;;;17.80;61.70;;;17.70;38.82;96074.47;5070257;28;20573;-60
2024/01/24 07:41:20;;;;;;;14.67;7.17;;;17.90;61.10;;;17.82;38.51;96078.56;5070590;28;20506;-59
2024/01/24 07:43:47;;;;;;;13.07;6.40;;;18.00;59.80;;;17.97;38.60;96084.22;5070387;28;20447;-59
2024/01/24 07:46:15;;;;;;;13.37;7.07;;;18.00;59.60;;;18.10;38.39;96070.47;5069952;28;20477;-61
2024/01/24 07:48:43;;;;;;;8.13;6.40;;;18.10;58.90;;;18.25;37.82;96074.22;5069884;28;20455;-61
2024/01/24 07:51:10;;;;;;;10.33;6.50;;;18.20;58.30;;;18.36;37.78;96081.13;5069610;28;20508;-60
2024/01/24 07:53:42;;;;;;;11.50;6.63;;;18.30;57.80;;;18.51;37.08;96085.84;5070096;28;21116;-60
2024/01/24 07:56:10;;;;;;;11.83;6.93;;;18.40;57.00;;;18.68;35.88;96084.91;5069846;28;20473;-60
2024/01/24 07:58:40;;;;;;;9.10;5.70;;;18.60;55.70;;;18.83;36.28;96087.00;5070006;28;20570;-59
2024/01/24 08:01:09;;;;;;;9.07;7.07;;;18.70;55.40;;;18.91;35.76;96087.88;5069446;28;20494;-60
2024/01/24 08:03:36;;;;;;;8.13;6.40;;;18.80;55.20;;;19.05;35.19;96090.91;5069480;28;20451;-60
2024/01/24 08:06:04;;;;;;;10.50;7.70;;;18.90;54.60;;;19.17;35.29;96092.28;5069637;28;20544;-59
2024/01/24 08:08:31;;;;;;;13.40;6.47;;;19.10;54.40;;;19.29;34.97;96090.97;5069887;28;20855;-59
2024/01/24 08:11:00;;;;;;;9.00;6.57;;;19.20;53.80;;;19.40;34.46;96087.16;5069397;28;21194;-61
2024/01/24 08:13:27;;;;;;;10.87;6.70;;;19.30;53.30;;;19.59;34.19;96096.69;5069698;28;20576;-60
2024/01/24 08:15:55;;;;;;;12.03;6.30;;;19.40;52.40;;;19.70;33.91;96101.72;5069621;28;20475;-60
2024/01/24 08:18:22;;;;;;;8.63;6.33;;;19.50;52.10;;;19.78;32.91;96092.88;5069428;28;20451;-61
2024/01/24 08:20:52;;;;;;;8.53;6.30;;;19.60;49.90;;;19.79;32.20;96093.72;5069574;28;20501;-61
2024/01/24 08:23:19;;;;;;;12.53;6.70;;;19.60;50.00;;;19.82;32.50;96098.72;5069895;28;20550;-60
2024/01/24 08:25:47;;;;;;;8.47;6.33;;;19.60;49.70;;;19.84;33.14;96115.41;5069823;28;20497;-59
2024/01/24 08:28:15;;;;;;;7.63;5.83;;;19.60;50.60;;;19.96;32.51;96111.41;5069899;28;20447;-61
2024/01/24 08:30:43;;;;;;;22.70;7.57;;;19.70;50.20;;;20.10;32.77;96114.41;5069434;28;20474;-60
2024/01/24 08:33:10;;;;;;;8.43;6.00;;;19.80;50.30;;;20.24;32.59;96103.84;5068573;28;20450;-59
2024/01/24 08:35:37;;;;;;;9.60;6.90;;;19.90;50.20;;;20.42;32.24;96102.84;5069721;28;20475;-60
2024/01/24 08:38:05;;;;;;;6.50;5.70;;;20.10;49.90;;;20.53;32.07;96101.63;5069472;28;20488;-60
2024/01/24 08:40:32;;;;;;;10.93;6.93;;;20.20;49.30;;;20.65;31.76;96089.59;5069346;28;20498;-60
2024/01/24 08:43:00;;;;;;;11.70;6.40;;;20.40;49.00;;;20.82;31.82;96090.38;5069891;28;20462;-60
2024/01/24 08:45:28;;;;;;;10.03;6.67;;;20.50;49.00;;;21.03;31.22;96084.41;5069525;28;20474;-60
2024/01/24 08:47:56;;;;;;;17.57;7.00;;;20.70;48.50;;;21.19;31.32;96074.63;5069348;28;20541;-61
2024/01/24 08:50:24;;;;;;;10.20;7.83;;;20.90;48.30;;;21.31;30.54;96071.34;5070510;28;20841;-60
2024/01/24 08:52:52;;;;;;;9.97;7.07;;;21.00;47.70;;;21.43;30.81;96071.78;5073726;28;20776;-61
2024/01/24 08:55:19;;;;;;;14.00;8.10;;;21.10;47.50;;;21.54;30.76;96075.94;5073669;28;20528;-61
2024/01/24 08:57:47;;;;;;;14.97;8.20;;;21.20;47.30;;;21.63;30.73;96079.38;5073323;28;20450;-61
2024/01/24 09:00:15;;;;;;;15.00;8.67;;;21.30;46.80;;;21.73;29.98;96082.63;5073420;28;21104;-59
2024/01/24 09:02:44;;;;;;;11.43;8.03;;;21.40;46.60;;;21.81;29.41;96087.94;5072312;28;21001;-59
2024/01/24 09:05:11;;;;;;;10.20;7.93;;;21.50;46.00;;;21.90;30.22;96085.19;5072701;28;20450;-59
2024/01/24 09:07:38;;;;;;;13.80;8.37;;;21.60;46.30;;;22.00;29.59;96086.59;5073123;28;20454;-61
2024/01/24 09:10:08;;;;;;;10.90;8.40;;;21.70;45.80;;;22.07;29.14;96084.03;5073026;28;20978;-60
2024/01/24 09:12:35;;;;;;;12.37;8.83;;;21.70;45.00;;;22.12;29.92;96080.78;5072979;28;20527;-61
2024/01/24 09:15:04;;;;;;;13.00;9.43;;;21.80;45.10;;;22.14;29.09;96082.28;5072874;28;20558;-60
2024/01/24 09:17:32;;;;;;;12.00;8.07;;;21.80;45.40;;;22.15;28.86;96075.94;5072880;28;20994;-60
2024/01/24 09:20:00;;;;;;;17.80;8.33;;;21.90;44.70;;;22.10;29.46;96066.75;5072477;28;20486;-60
2024/01/24 09:22:27;;;;;;;10.93;8.53;;;21.90;45.10;;;22.11;29.27;96071.94;5072678;28;20451;-61
2024/01/24 09:24:54;;;;;;;12.40;8.67;;;21.90;44.80;;;22.19;27.84;96071.84;5073265;28;20519;-59
2024/01/24 09:27:21;;;;;;;14.87;9.83;;;21.90;44.20;;;22.24;29.13;96068.63;5073699;28;20447;-62
2024/01/24 09:29:48;;;;;;;10.57;8.10;;;21.90;44.40;;;22.26;28.65;96071.13;5073092;28;20462;-60
2024/01/24 09:32:16;;;;;;;11.63;9.40;;;21.90;44.30;;;22.32;28.74;96065.06;5071520;28;20851;-60
2024/01/24 09:34:43;;;;;;;12.50;8.67;;;22.00;44.30;;;22.36;28.49;96069.88;5071816;28;20967;-59
2024/01/24 09:37:12;;;;;;;12.43;9.37;;;22.00;44.10;;;22.38;28.96;96067.00;5072587;28;21018;-60
2024/01/24 09:39:39;;;;;;;9.97;7.80;;;22.10;44.20;;;22.41;28.74;96052.41;5072275;28;20533;-60
2024/01/24 09:42:07;;;;;;;10.47;7.83;;;22.10;44.70;;;22.43;28.92;96045.81;5072186;28;21072;-60
2024/01/24 09:44:35;;;;;;;11.27;8.63;;;22.20;44.80;;;22.52;28.85;96038.53;5072010;28;20504;-61
2024/01/24 09:47:03;;;;;;;10.33;8.53;;;22.20;44.50;;;22.53;28.55;96038.34;5071692;28;20550;-60
2024/01/24 09:49:31;;;;;;;12.37;7.93;;;22.20;44.00;;;22.58;28.75;96042.31;5072358;28;20459;-60
2024/01/24 09:51:58;;;;;;;12.43;8.17;;;22.20;43.60;;;22.63;28.20;96045.28;5071766;28;20471;-63
2024/01/24 09:54:26;;;;;;;12.63;8.07;;;22.30;43.30;;;22.70;28.30;96030.09;5072018;28;20457;-61
2024/01/24 09:56:54;;;;;;;10.13;7.63;;;22.40;43.40;;;22.80;27.57;96019.91;5072301;28;20467;-61
2024/01/24 09:59:21;;;;;;;10.90;8.00;;;22.40;43.40;;;22.88;28.45;96024.31;5072016;28;20458;-61
2024/01/24 10:01:48;;;;;;;12.00;8.77;;;22.60;43.80;;;22.94;28.25;96028.13;5070377;28;20543;-61
2024/01/24 10:04:16;;;;;;;8.77;6.83;;;22.60;43.50;;;22.94;27.22;96020.06;5070968;28;20451;-61
2024/01/24 10:06:43;;;;;;;14.13;10.30;;;22.60;41.90;;;22.82;27.59;96006.28;5071821;28;20478;-60
2024/01/24 10:09:10;;;;;;;13.17;9.23;;;22.60;41.80;;;22.70;28.01;96003.28;5071657;28;20981;-60
2024/01/24 10:11:39;;;;;;;10.57;7.80;;;22.50;42.50;;;22.74;27.71;96004.56;5071919;28;21298;-59
2024/01/24 10:14:07;;;;;;;14.27;7.70;;;22.40;41.80;;;22.84;27.61;96007.78;5071521;28;20512;-60
2024/01/24 10:16:34;;;;;;;9.90;8.00;;;22.50;42.10;;;22.92;26.29;96007.66;5071349;28;21013;-61
2024/01/24 10:19:01;;;;;;;16.83;10.20;;;22.60;41.50;;;22.91;27.64;96006.00;5071464;28;20451;-60
2024/01/24 10:21:29;;;;;;;11.13;8.73;;;22.60;41.70;;;22.92;27.36;95999.59;5071388;28;20505;-61
2024/01/24 10:23:57;;;;;;;12.10;8.03;;;22.60;40.80;;;22.97;26.72;95992.84;5071542;28;20482;-60